sensor_id;sensor_type;location;lat;lon;timestamp;temperature;humidity
33328;DHT22;19692;52.998;9.116;2022-12-07T00:01:14;3.70;99.90
33328;DHT22;19692;52.998;9.116;2022-12-07T00:03:45;3.70;99.90
33328;DHT22;19692;52.998;9.116;2022-12-07T00:06:13;3.70;99.90
33328;DHT22;19692;52.998;9.116;2022-12-07T00:08:40;3.80;99.90
33328;DHT22;19692;52.998;9.116;2022-12-07T00:11:10;3.80;99.90
33328;DHT22;19692;52.998;9.116;2022-12-07T00:13:38;3.80;99.90
33328;DHT22;19692;52.998;9.116;2022-12-07T00:16:07;3.80;99.90
33328;DHT22;19692;52.998;9.116;2022-12-07T00:18:35;3.80;99.90
33328;DHT22;19692;52.998;9.116;2022-12-07T00:21:02;3.80;99.90
33328;DHT22;19692;52.998;9.116;2022-12-07T00:23:30;3.80;99.90
33328;DHT22;19692;52.998;9.116;2022-12-07T00:25:55;3.80;99.90
33328;DHT22;19692;52.998;9.116;2022-12-07T00:28:21;3.70;99.90
33328;DHT22;19692;52.998;9.116;2022-12-07T00:30:47;3.70;99.90
33328;DHT22;19692;52.998;9.116;2022-12-07T00:33:13;3.60;99.90
33328;DHT22;19692;52.998;9.116;2022-12-07T00:35:39;3.60;99.90
33328;DHT22;19692;52.998;9.116;2022-12-07T00:38:04;3.50;99.90
33328;DHT22;19692;52.998;9.116;2022-12-07T00:40:30;3.40;99.90
33328;DHT22;19692;52.998;9.116;2022-12-07T00:42:56;3.40;99.90
33328;DHT22;19692;52.998;9.116;2022-12-07T00:45:21;3.30;99.90
33328;DHT22;19692;52.998;9.116;2022-12-07T00:47:47;3.20;99.90
33328;DHT22;19692;52.998;9.116;2022-12-07T00:50:13;3.10;99.90
33328;DHT22;19692;52.998;9.116;2022-12-07T00:52:39;3.10;99.90
33328;DHT22;19692;52.998;9.116;2022-12-07T00:55:05;3.00;99.90
33328;DHT22;19692;52.998;9.116;2022-12-07T00:57:31;3.00;99.90
33328;DHT22;19692;52.998;9.116;2022-12-07T00:59:57;3.00;99.90
33328;DHT22;19692;52.998;9.116;2022-12-07T01:02:23;3.10;99.90
33328;DHT22;19692;52.998;9.116;2022-12-07T01:04:49;3.10;99.90
33328;DHT22;19692;52.998;9.116;2022-12-07T01:07:15;3.10;99.90
33328;DHT22;19692;52.998;9.116;2022-12-07T01:09:41;3.10;99.90
33328;DHT22;19692;52.998;9.116;2022-12-07T01:12:06;3.10;99.90
33328;DHT22;19692;52.998;9.116;2022-12-07T01:14:32;3.10;99.90
33328;DHT22;19692;52.998;9.116;2022-12-07T01:16:58;3.10;99.90
33328;DHT22;19692;52.998;9.116;2022-12-07T01:19:24;3.10;99.90
33328;DHT22;19692;52.998;9.116;2022-12-07T01:21:49;3.00;99.90
33328;DHT22;19692;52.998;9.116;2022-12-07T01:24:15;3.00;99.90
33328;DHT22;19692;52.998;9.116;2022-12-07T01:26:41;3.00;99.90
33328;DHT22;19692;52.998;9.116;2022-12-07T01:29:07;3.00;99.90
33328;DHT22;19692;52.998;9.116;2022-12-07T01:31:33;3.00;99.90
33328;DHT22;19692;52.998;9.116;2022-12-07T01:33:59;3.00;99.90
33328;DHT22;19692;52.998;9.116;2022-12-07T01:36:32;3.10;99.90
33328;DHT22;19692;52.998;9.116;2022-12-07T01:39:03;3.10;99.90
33328;DHT22;19692;52.998;9.116;2022-12-07T01:41:33;3.10;99.90
33328;DHT22;19692;52.998;9.116;2022-12-07T01:46:58;3.00;99.90
33328;DHT22;19692;52.998;9.116;2022-12-07T01:49:36;3.00;99.90
33328;DHT22;19692;52.998;9.116;2022-12-07T01:52:29;3.00;99.90
33328;DHT22;19692;52.998;9.116;2022-12-07T01:55:00;3.00;99.90
33328;DHT22;19692;52.998;9.116;2022-12-07T01:57:29;3.00;99.90
33328;DHT22;19692;52.998;9.116;2022-12-07T01:59:56;3.00;99.90
33328;DHT22;19692;52.998;9.116;2022-12-07T02:02:29;3.00;99.90
33328;DHT22;19692;52.998;9.116;2022-12-07T02:04:59;3.00;99.90
33328;DHT22;19692;52.998;9.116;2022-12-07T02:07:28;3.00;99.90
33328;DHT22;19692;52.998;9.116;2022-12-07T02:09:54;2.90;99.90
33328;DHT22;19692;52.998;9.116;2022-12-07T02:12:21;3.00;99.90
33328;DHT22;19692;52.998;9.116;2022-12-07T02:14:48;2.90;99.90
33328;DHT22;19692;52.998;9.116;2022-12-07T02:17:32;2.90;99.90
33328;DHT22;19692;52.998;9.116;2022-12-07T02:23:39;2.90;99.90
33328;DHT22;19692;52.998;9.116;2022-12-07T02:26:15;2.90;99.90
33328;DHT22;19692;52.998;9.116;2022-12-07T02:32:04;2.80;99.90
33328;DHT22;19692;52.998;9.116;2022-12-07T02:37:14;2.70;99.90
33328;DHT22;19692;52.998;9.116;2022-12-07T02:39:53;2.70;99.90
33328;DHT22;19692;52.998;9.116;2022-12-07T02:42:47;2.70;99.90
33328;DHT22;19692;52.998;9.116;2022-12-07T02:45:18;2.70;99.90
33328;DHT22;19692;52.998;9.116;2022-12-07T02:47:49;2.70;99.90
33328;DHT22;19692;52.998;9.116;2022-12-07T02:50:19;2.70;99.90
33328;DHT22;19692;52.998;9.116;2022-12-07T02:52:46;2.80;99.90
33328;DHT22;19692;52.998;9.116;2022-12-07T02:55:13;2.80;99.90
33328;DHT22;19692;52.998;9.116;2022-12-07T02:58:02;2.80;99.90
33328;DHT22;19692;52.998;9.116;2022-12-07T03:00:47;2.80;99.90
33328;DHT22;19692;52.998;9.116;2022-12-07T03:03:20;2.70;99.90
33328;DHT22;19692;52.998;9.116;2022-12-07T03:05:59;2.70;99.90
33328;DHT22;19692;52.998;9.116;2022-12-07T03:11:18;2.70;99.90
33328;DHT22;19692;52.998;9.116;2022-12-07T03:13:59;2.70;99.90
33328;DHT22;19692;52.998;9.116;2022-12-07T03:16:43;2.70;99.90
33328;DHT22;19692;52.998;9.116;2022-12-07T03:19:19;2.70;99.90
33328;DHT22;19692;52.998;9.116;2022-12-07T03:21:51;2.60;99.90
33328;DHT22;19692;52.998;9.116;2022-12-07T03:24:30;2.70;99.90
33328;DHT22;19692;52.998;9.116;2022-12-07T03:27:24;2.70;99.90
33328;DHT22;19692;52.998;9.116;2022-12-07T03:30:03;2.70;99.90
33328;DHT22;19692;52.998;9.116;2022-12-07T03:32:43;2.80;99.90
33328;DHT22;19692;52.998;9.116;2022-12-07T03:35:20;2.80;99.90
33328;DHT22;19692;52.998;9.116;2022-12-07T03:38:06;2.80;99.90
33328;DHT22;19692;52.998;9.116;2022-12-07T03:41:19;2.90;99.90
33328;DHT22;19692;52.998;9.116;2022-12-07T03:43:48;2.90;99.90
33328;DHT22;19692;52.998;9.116;2022-12-07T03:46:31;2.90;99.90
33328;DHT22;19692;52.998;9.116;2022-12-07T03:51:56;2.90;99.90
33328;DHT22;19692;52.998;9.116;2022-12-07T03:54:36;2.90;99.90
33328;DHT22;19692;52.998;9.116;2022-12-07T03:57:06;2.90;99.90
33328;DHT22;19692;52.998;9.116;2022-12-07T03:59:33;2.90;99.90
33328;DHT22;19692;52.998;9.116;2022-12-07T04:02:05;3.00;99.90
33328;DHT22;19692;52.998;9.116;2022-12-07T04:04:33;3.00;99.90
33328;DHT22;19692;52.998;9.116;2022-12-07T04:07:00;3.00;99.90
33328;DHT22;19692;52.998;9.116;2022-12-07T04:09:26;3.10;99.90
33328;DHT22;19692;52.998;9.116;2022-12-07T04:11:52;3.10;99.90
33328;DHT22;19692;52.998;9.116;2022-12-07T04:14:17;3.10;99.90
33328;DHT22;19692;52.998;9.116;2022-12-07T04:16:44;3.10;99.90
33328;DHT22;19692;52.998;9.116;2022-12-07T04:19:11;3.10;99.90
33328;DHT22;19692;52.998;9.116;2022-12-07T04:21:37;3.20;99.90
33328;DHT22;19692;52.998;9.116;2022-12-07T04:24:04;3.20;99.90
33328;DHT22;19692;52.998;9.116;2022-12-07T04:26:30;3.20;99.90
33328;DHT22;19692;52.998;9.116;2022-12-07T04:28:56;3.20;99.90
33328;DHT22;19692;52.998;9.116;2022-12-07T04:31:21;3.20;99.90
33328;DHT22;19692;52.998;9.116;2022-12-07T04:33:47;3.20;99.90
33328;DHT22;19692;52.998;9.116;2022-12-07T04:36:13;3.20;99.90
33328;DHT22;19692;52.998;9.116;2022-12-07T04:38:39;3.20;99.90
33328;DHT22;19692;52.998;9.116;2022-12-07T04:41:09;3.20;99.90
33328;DHT22;19692;52.998;9.116;2022-12-07T04:43:35;3.20;99.90
33328;DHT22;19692;52.998;9.116;2022-12-07T04:46:02;3.10;99.90
33328;DHT22;19692;52.998;9.116;2022-12-07T04:48:28;3.10;99.90
33328;DHT22;19692;52.998;9.116;2022-12-07T04:50:56;3.00;99.90
33328;DHT22;19692;52.998;9.116;2022-12-07T04:53:22;3.00;99.90
33328;DHT22;19692;52.998;9.116;2022-12-07T04:55:47;3.00;99.90
33328;DHT22;19692;52.998;9.116;2022-12-07T04:58:14;3.10;99.90
33328;DHT22;19692;52.998;9.116;2022-12-07T05:00:41;3.00;99.90
33328;DHT22;19692;52.998;9.116;2022-12-07T05:03:07;3.10;99.90
33328;DHT22;19692;52.998;9.116;2022-12-07T05:05:32;3.10;99.90
33328;DHT22;19692;52.998;9.116;2022-12-07T05:07:58;3.00;99.90
33328;DHT22;19692;52.998;9.116;2022-12-07T05:10:24;3.00;99.90
33328;DHT22;19692;52.998;9.116;2022-12-07T05:12:50;3.00;99.90
33328;DHT22;19692;52.998;9.116;2022-12-07T05:15:16;3.00;99.90
33328;DHT22;19692;52.998;9.116;2022-12-07T05:17:42;3.00;99.90
33328;DHT22;19692;52.998;9.116;2022-12-07T05:20:08;3.00;99.90
33328;DHT22;19692;52.998;9.116;2022-12-07T05:22:34;3.00;99.90
33328;DHT22;19692;52.998;9.116;2022-12-07T05:25:01;3.00;99.90
33328;DHT22;19692;52.998;9.116;2022-12-07T05:27:27;2.90;99.90
33328;DHT22;19692;52.998;9.116;2022-12-07T05:29:52;3.00;99.90
33328;DHT22;19692;52.998;9.116;2022-12-07T05:32:18;3.00;99.90
33328;DHT22;19692;52.998;9.116;2022-12-07T05:34:44;3.00;99.90
33328;DHT22;19692;52.998;9.116;2022-12-07T05:37:10;3.00;99.90
33328;DHT22;19692;52.998;9.116;2022-12-07T05:39:36;3.00;99.90
33328;DHT22;19692;52.998;9.116;2022-12-07T05:42:03;2.90;99.90
33328;DHT22;19692;52.998;9.116;2022-12-07T05:44:39;2.90;99.90
33328;DHT22;19692;52.998;9.116;2022-12-07T05:47:06;2.90;99.90
33328;DHT22;19692;52.998;9.116;2022-12-07T05:49:32;2.80;99.90
33328;DHT22;19692;52.998;9.116;2022-12-07T05:51:58;2.80;99.90
33328;DHT22;19692;52.998;9.116;2022-12-07T05:54:24;2.80;99.90
33328;DHT22;19692;52.998;9.116;2022-12-07T05:56:50;2.70;99.90
33328;DHT22;19692;52.998;9.116;2022-12-07T05:59:16;2.70;99.90
33328;DHT22;19692;52.998;9.116;2022-12-07T06:01:53;2.70;99.90
33328;DHT22;19692;52.998;9.116;2022-12-07T06:04:21;2.70;99.90
33328;DHT22;19692;52.998;9.116;2022-12-07T06:06:47;2.70;99.90
33328;DHT22;19692;52.998;9.116;2022-12-07T06:09:14;2.70;99.90
33328;DHT22;19692;52.998;9.116;2022-12-07T06:11:40;2.70;99.90
33328;DHT22;19692;52.998;9.116;2022-12-07T06:14:25;2.60;99.90
33328;DHT22;19692;52.998;9.116;2022-12-07T06:16:51;2.60;99.90
33328;DHT22;19692;52.998;9.116;2022-12-07T06:19:17;2.70;99.90
33328;DHT22;19692;52.998;9.116;2022-12-07T06:21:43;2.70;99.90
33328;DHT22;19692;52.998;9.116;2022-12-07T06:24:11;2.70;99.90
33328;DHT22;19692;52.998;9.116;2022-12-07T06:26:37;2.70;99.90
33328;DHT22;19692;52.998;9.116;2022-12-07T06:29:03;2.70;99.90
33328;DHT22;19692;52.998;9.116;2022-12-07T06:31:29;2.70;99.90
33328;DHT22;19692;52.998;9.116;2022-12-07T06:34:06;2.70;99.90
33328;DHT22;19692;52.998;9.116;2022-12-07T06:36:34;2.80;99.90
33328;DHT22;19692;52.998;9.116;2022-12-07T06:39:00;2.80;99.90
33328;DHT22;19692;52.998;9.116;2022-12-07T06:41:26;2.80;99.90
33328;DHT22;19692;52.998;9.116;2022-12-07T06:43:52;2.80;99.90
33328;DHT22;19692;52.998;9.116;2022-12-07T06:46:18;2.80;99.90
33328;DHT22;19692;52.998;9.116;2022-12-07T06:48:44;2.80;99.90
33328;DHT22;19692;52.998;9.116;2022-12-07T06:51:10;2.80;99.90
33328;DHT22;19692;52.998;9.116;2022-12-07T06:53:36;2.70;99.90
33328;DHT22;19692;52.998;9.116;2022-12-07T06:56:03;2.80;99.90
33328;DHT22;19692;52.998;9.116;2022-12-07T06:58:29;2.80;99.90
33328;DHT22;19692;52.998;9.116;2022-12-07T07:00:55;2.80;99.90
33328;DHT22;19692;52.998;9.116;2022-12-07T07:03:22;2.80;99.90
33328;DHT22;19692;52.998;9.116;2022-12-07T07:05:48;2.70;99.90
33328;DHT22;19692;52.998;9.116;2022-12-07T07:08:14;2.70;99.90
33328;DHT22;19692;52.998;9.116;2022-12-07T07:10:40;2.70;99.90
33328;DHT22;19692;52.998;9.116;2022-12-07T07:13:06;2.70;99.90
33328;DHT22;19692;52.998;9.116;2022-12-07T07:15:33;2.70;99.90
33328;DHT22;19692;52.998;9.116;2022-12-07T07:17:59;2.60;99.90
33328;DHT22;19692;52.998;9.116;2022-12-07T07:20:26;2.70;99.90
33328;DHT22;19692;52.998;9.116;2022-12-07T07:22:54;2.60;99.90
33328;DHT22;19692;52.998;9.116;2022-12-07T07:25:20;2.60;99.90
33328;DHT22;19692;52.998;9.116;2022-12-07T07:27:46;2.60;99.90
33328;DHT22;19692;52.998;9.116;2022-12-07T07:30:12;2.60;99.90
33328;DHT22;19692;52.998;9.116;2022-12-07T07:32:38;2.60;99.90
33328;DHT22;19692;52.998;9.116;2022-12-07T07:35:04;2.50;99.90
33328;DHT22;19692;52.998;9.116;2022-12-07T07:37:30;2.60;99.90
33328;DHT22;19692;52.998;9.116;2022-12-07T07:39:56;2.60;99.90
33328;DHT22;19692;52.998;9.116;2022-12-07T07:42:22;2.60;99.90
33328;DHT22;19692;52.998;9.116;2022-12-07T07:44:48;2.60;99.90
33328;DHT22;19692;52.998;9.116;2022-12-07T07:47:13;2.60;99.90
33328;DHT22;19692;52.998;9.116;2022-12-07T07:49:39;2.60;99.90
33328;DHT22;19692;52.998;9.116;2022-12-07T07:52:05;2.50;99.90
33328;DHT22;19692;52.998;9.116;2022-12-07T07:54:31;2.50;99.90
33328;DHT22;19692;52.998;9.116;2022-12-07T07:56:57;2.50;99.90
33328;DHT22;19692;52.998;9.116;2022-12-07T07:59:23;2.50;99.90
33328;DHT22;19692;52.998;9.116;2022-12-07T08:01:50;2.50;99.90
33328;DHT22;19692;52.998;9.116;2022-12-07T08:04:16;2.50;99.90
33328;DHT22;19692;52.998;9.116;2022-12-07T08:06:42;2.50;99.90
33328;DHT22;19692;52.998;9.116;2022-12-07T08:09:08;2.50;99.90
33328;DHT22;19692;52.998;9.116;2022-12-07T08:11:34;2.60;99.90
33328;DHT22;19692;52.998;9.116;2022-12-07T08:14:01;2.60;99.90
33328;DHT22;19692;52.998;9.116;2022-12-07T08:16:27;2.60;99.90
33328;DHT22;19692;52.998;9.116;2022-12-07T08:18:53;2.60;99.90
33328;DHT22;19692;52.998;9.116;2022-12-07T08:21:19;2.60;99.90
33328;DHT22;19692;52.998;9.116;2022-12-07T08:23:45;2.60;99.90
33328;DHT22;19692;52.998;9.116;2022-12-07T08:26:13;2.60;99.90
33328;DHT22;19692;52.998;9.116;2022-12-07T08:28:40;2.70;99.90
33328;DHT22;19692;52.998;9.116;2022-12-07T08:31:17;2.70;99.90
33328;DHT22;19692;52.998;9.116;2022-12-07T08:33:46;2.70;99.90
33328;DHT22;19692;52.998;9.116;2022-12-07T08:36:13;2.70;99.90
33328;DHT22;19692;52.998;9.116;2022-12-07T08:38:40;2.70;99.90
33328;DHT22;19692;52.998;9.116;2022-12-07T08:41:07;2.80;99.90
33328;DHT22;19692;52.998;9.116;2022-12-07T08:43:33;2.80;99.90
33328;DHT22;19692;52.998;9.116;2022-12-07T08:48:55;2.90;99.90
33328;DHT22;19692;52.998;9.116;2022-12-07T08:51:24;2.90;99.90
33328;DHT22;19692;52.998;9.116;2022-12-07T08:53:51;2.90;99.90
33328;DHT22;19692;52.998;9.116;2022-12-07T08:56:17;2.90;99.90
33328;DHT22;19692;52.998;9.116;2022-12-07T08:58:44;2.90;99.90
33328;DHT22;19692;52.998;9.116;2022-12-07T09:01:10;2.90;99.90
33328;DHT22;19692;52.998;9.116;2022-12-07T09:03:36;2.90;99.90
33328;DHT22;19692;52.998;9.116;2022-12-07T09:06:01;3.00;99.90
33328;DHT22;19692;52.998;9.116;2022-12-07T09:08:34;3.00;99.90
33328;DHT22;19692;52.998;9.116;2022-12-07T09:11:02;3.00;99.90
33328;DHT22;19692;52.998;9.116;2022-12-07T09:13:28;3.10;99.90
33328;DHT22;19692;52.998;9.116;2022-12-07T09:15:54;3.10;99.90
33328;DHT22;19692;52.998;9.116;2022-12-07T09:18:19;3.20;99.90
33328;DHT22;19692;52.998;9.116;2022-12-07T09:20:45;3.20;99.90
33328;DHT22;19692;52.998;9.116;2022-12-07T09:23:11;3.20;99.90
33328;DHT22;19692;52.998;9.116;2022-12-07T09:25:37;3.20;99.90
33328;DHT22;19692;52.998;9.116;2022-12-07T09:28:03;3.30;99.90
33328;DHT22;19692;52.998;9.116;2022-12-07T09:30:29;3.30;99.90
33328;DHT22;19692;52.998;9.116;2022-12-07T09:32:56;3.30;99.90
33328;DHT22;19692;52.998;9.116;2022-12-07T09:35:23;3.30;99.90
33328;DHT22;19692;52.998;9.116;2022-12-07T09:37:49;3.30;99.90
33328;DHT22;19692;52.998;9.116;2022-12-07T09:40:16;3.40;99.90
33328;DHT22;19692;52.998;9.116;2022-12-07T09:42:47;3.40;99.90
33328;DHT22;19692;52.998;9.116;2022-12-07T09:45:18;3.40;99.90
33328;DHT22;19692;52.998;9.116;2022-12-07T09:47:47;3.50;99.90
33328;DHT22;19692;52.998;9.116;2022-12-07T09:50:24;3.50;99.90
33328;DHT22;19692;52.998;9.116;2022-12-07T09:52:52;3.40;99.90
33328;DHT22;19692;52.998;9.116;2022-12-07T09:55:25;3.40;99.90
33328;DHT22;19692;52.998;9.116;2022-12-07T09:57:52;3.40;99.90
33328;DHT22;19692;52.998;9.116;2022-12-07T10:00:20;3.40;99.90
33328;DHT22;19692;52.998;9.116;2022-12-07T10:05:34;3.70;99.90
33328;DHT22;19692;52.998;9.116;2022-12-07T10:08:03;3.80;99.90
33328;DHT22;19692;52.998;9.116;2022-12-07T10:10:33;3.90;99.90
33328;DHT22;19692;52.998;9.116;2022-12-07T10:13:05;3.90;99.90
33328;DHT22;19692;52.998;9.116;2022-12-07T10:15:45;3.90;99.90
33328;DHT22;19692;52.998;9.116;2022-12-07T10:18:35;4.00;99.90
33328;DHT22;19692;52.998;9.116;2022-12-07T10:29:21;4.40;99.90
33328;DHT22;19692;52.998;9.116;2022-12-07T10:32:04;4.50;99.90
33328;DHT22;19692;52.998;9.116;2022-12-07T10:34:50;4.60;99.90
33328;DHT22;19692;52.998;9.116;2022-12-07T10:37:19;4.80;99.90
33328;DHT22;19692;52.998;9.116;2022-12-07T10:39:48;4.90;99.90
33328;DHT22;19692;52.998;9.116;2022-12-07T10:42:20;4.80;99.90
33328;DHT22;19692;52.998;9.116;2022-12-07T10:45:15;4.70;99.90
33328;DHT22;19692;52.998;9.116;2022-12-07T10:48:03;4.70;99.90
33328;DHT22;19692;52.998;9.116;2022-12-07T10:53:39;4.40;99.90
33328;DHT22;19692;52.998;9.116;2022-12-07T11:02:23;4.30;99.90
33328;DHT22;19692;52.998;9.116;2022-12-07T11:04:55;4.30;99.90
33328;DHT22;19692;52.998;9.116;2022-12-07T11:07:53;4.30;99.90
33328;DHT22;19692;52.998;9.116;2022-12-07T11:13:32;4.30;99.90
33328;DHT22;19692;52.998;9.116;2022-12-07T11:25:13;4.90;99.90
33328;DHT22;19692;52.998;9.116;2022-12-07T11:31:03;5.30;99.90
33328;DHT22;19692;52.998;9.116;2022-12-07T11:36:31;6.10;99.90
33328;DHT22;19692;52.998;9.116;2022-12-07T11:39:34;6.40;99.90
33328;DHT22;19692;52.998;9.116;2022-12-07T11:42:26;6.30;99.90
33328;DHT22;19692;52.998;9.116;2022-12-07T11:50:45;5.70;99.90
33328;DHT22;19692;52.998;9.116;2022-12-07T11:56:19;5.10;99.90
33328;DHT22;19692;52.998;9.116;2022-12-07T11:59:12;4.90;99.90
33328;DHT22;19692;52.998;9.116;2022-12-07T12:01:55;4.80;99.90
33328;DHT22;19692;52.998;9.116;2022-12-07T12:04:31;4.90;99.90
33328;DHT22;19692;52.998;9.116;2022-12-07T12:07:00;5.00;99.90
33328;DHT22;19692;52.998;9.116;2022-12-07T12:09:35;5.10;99.90
33328;DHT22;19692;52.998;9.116;2022-12-07T12:12:31;5.20;99.90
33328;DHT22;19692;52.998;9.116;2022-12-07T12:15:15;5.20;99.90
33328;DHT22;19692;52.998;9.116;2022-12-07T12:18:00;5.20;99.90
33328;DHT22;19692;52.998;9.116;2022-12-07T12:23:22;5.20;99.90
33328;DHT22;19692;52.998;9.116;2022-12-07T12:25:57;5.10;99.90
33328;DHT22;19692;52.998;9.116;2022-12-07T12:28:41;5.00;99.90
33328;DHT22;19692;52.998;9.116;2022-12-07T12:31:16;4.90;99.90
33328;DHT22;19692;52.998;9.116;2022-12-07T12:33:59;4.60;99.90
33328;DHT22;19692;52.998;9.116;2022-12-07T12:44:02;4.60;99.90
33328;DHT22;19692;52.998;9.116;2022-12-07T12:48:57;4.60;99.90
33328;DHT22;19692;52.998;9.116;2022-12-07T12:51:41;4.60;99.90
33328;DHT22;19692;52.998;9.116;2022-12-07T12:54:19;4.60;99.90
33328;DHT22;19692;52.998;9.116;2022-12-07T12:57:11;4.60;99.90
33328;DHT22;19692;52.998;9.116;2022-12-07T13:02:38;4.60;99.90
33328;DHT22;19692;52.998;9.116;2022-12-07T13:10:21;4.30;99.90
33328;DHT22;19692;52.998;9.116;2022-12-07T13:15:51;3.60;99.90
33328;DHT22;19692;52.998;9.116;2022-12-07T13:20:57;3.20;99.90
33328;DHT22;19692;52.998;9.116;2022-12-07T13:29:17;2.70;99.90
33328;DHT22;19692;52.998;9.116;2022-12-07T13:31:54;2.70;99.90
33328;DHT22;19692;52.998;9.116;2022-12-07T13:34:34;2.80;99.90
33328;DHT22;19692;52.998;9.116;2022-12-07T13:39:51;2.90;99.90
33328;DHT22;19692;52.998;9.116;2022-12-07T13:42:31;3.00;99.90
33328;DHT22;19692;52.998;9.116;2022-12-07T13:45:00;3.10;99.90
33328;DHT22;19692;52.998;9.116;2022-12-07T13:47:52;3.10;99.90
33328;DHT22;19692;52.998;9.116;2022-12-07T13:50:29;3.20;99.90
33328;DHT22;19692;52.998;9.116;2022-12-07T13:52:58;3.10;99.90
33328;DHT22;19692;52.998;9.116;2022-12-07T13:55:26;3.20;99.90
33328;DHT22;19692;52.998;9.116;2022-12-07T13:57:54;3.20;99.90
33328;DHT22;19692;52.998;9.116;2022-12-07T14:00:23;3.20;99.90
33328;DHT22;19692;52.998;9.116;2022-12-07T14:02:59;3.20;99.90
33328;DHT22;19692;52.998;9.116;2022-12-07T14:05:32;3.20;99.90
33328;DHT22;19692;52.998;9.116;2022-12-07T14:08:05;3.20;99.90
33328;DHT22;19692;52.998;9.116;2022-12-07T14:13:35;3.20;99.90
33328;DHT22;19692;52.998;9.116;2022-12-07T14:16:54;3.30;99.90
33328;DHT22;19692;52.998;9.116;2022-12-07T14:19:57;3.30;99.90
33328;DHT22;19692;52.998;9.116;2022-12-07T14:22:33;3.30;99.90
33328;DHT22;19692;52.998;9.116;2022-12-07T14:27:39;3.30;99.90
33328;DHT22;19692;52.998;9.116;2022-12-07T14:30:05;3.20;99.90
33328;DHT22;19692;52.998;9.116;2022-12-07T14:32:34;3.20;99.90
33328;DHT22;19692;52.998;9.116;2022-12-07T14:35:12;3.20;99.90
33328;DHT22;19692;52.998;9.116;2022-12-07T14:37:40;3.20;99.90
33328;DHT22;19692;52.998;9.116;2022-12-07T14:40:12;3.10;99.90
33328;DHT22;19692;52.998;9.116;2022-12-07T14:42:39;3.10;99.90
33328;DHT22;19692;52.998;9.116;2022-12-07T14:45:10;3.10;99.90
33328;DHT22;19692;52.998;9.116;2022-12-07T14:47:39;3.00;99.90
33328;DHT22;19692;52.998;9.116;2022-12-07T14:50:05;3.00;99.90
33328;DHT22;19692;52.998;9.116;2022-12-07T14:52:31;3.10;99.90
33328;DHT22;19692;52.998;9.116;2022-12-07T14:54:57;3.00;99.90
33328;DHT22;19692;52.998;9.116;2022-12-07T14:57:23;3.00;99.90
33328;DHT22;19692;52.998;9.116;2022-12-07T14:59:49;2.80;99.90
33328;DHT22;19692;52.998;9.116;2022-12-07T15:02:16;2.80;99.90
33328;DHT22;19692;52.998;9.116;2022-12-07T15:04:42;2.80;99.90
33328;DHT22;19692;52.998;9.116;2022-12-07T15:07:20;2.80;99.90
33328;DHT22;19692;52.998;9.116;2022-12-07T15:09:46;2.70;99.90
33328;DHT22;19692;52.998;9.116;2022-12-07T15:12:13;2.70;99.90
33328;DHT22;19692;52.998;9.116;2022-12-07T15:14:39;2.70;99.90
33328;DHT22;19692;52.998;9.116;2022-12-07T15:17:04;2.60;99.90
33328;DHT22;19692;52.998;9.116;2022-12-07T15:19:30;2.60;99.90
33328;DHT22;19692;52.998;9.116;2022-12-07T15:21:57;2.50;99.90
33328;DHT22;19692;52.998;9.116;2022-12-07T15:24:24;2.50;99.90
33328;DHT22;19692;52.998;9.116;2022-12-07T15:26:49;2.50;99.90
33328;DHT22;19692;52.998;9.116;2022-12-07T15:29:15;2.50;99.90
33328;DHT22;19692;52.998;9.116;2022-12-07T15:31:42;2.50;99.90
33328;DHT22;19692;52.998;9.116;2022-12-07T15:34:08;2.40;99.90
33328;DHT22;19692;52.998;9.116;2022-12-07T15:36:34;2.40;99.90
33328;DHT22;19692;52.998;9.116;2022-12-07T15:39:00;2.50;99.90
33328;DHT22;19692;52.998;9.116;2022-12-07T15:41:27;2.50;99.90
33328;DHT22;19692;52.998;9.116;2022-12-07T15:43:52;2.50;99.90
33328;DHT22;19692;52.998;9.116;2022-12-07T15:46:39;2.50;99.90
33328;DHT22;19692;52.998;9.116;2022-12-07T15:49:12;2.50;99.90
33328;DHT22;19692;52.998;9.116;2022-12-07T15:51:42;2.50;99.90
33328;DHT22;19692;52.998;9.116;2022-12-07T15:54:16;2.40;99.90
33328;DHT22;19692;52.998;9.116;2022-12-07T15:56:44;2.40;99.90
33328;DHT22;19692;52.998;9.116;2022-12-07T15:59:10;2.30;99.90
33328;DHT22;19692;52.998;9.116;2022-12-07T16:01:36;2.30;99.90
33328;DHT22;19692;52.998;9.116;2022-12-07T16:04:02;2.30;99.90
33328;DHT22;19692;52.998;9.116;2022-12-07T16:06:27;2.30;99.90
33328;DHT22;19692;52.998;9.116;2022-12-07T16:08:53;2.20;99.90
33328;DHT22;19692;52.998;9.116;2022-12-07T16:11:19;2.20;99.90
33328;DHT22;19692;52.998;9.116;2022-12-07T16:13:46;2.20;99.90
33328;DHT22;19692;52.998;9.116;2022-12-07T16:16:14;2.20;99.90
33328;DHT22;19692;52.998;9.116;2022-12-07T16:18:43;2.20;99.90
33328;DHT22;19692;52.998;9.116;2022-12-07T16:21:11;2.20;99.90
33328;DHT22;19692;52.998;9.116;2022-12-07T16:23:38;2.20;99.90
33328;DHT22;19692;52.998;9.116;2022-12-07T16:26:22;2.10;99.90
33328;DHT22;19692;52.998;9.116;2022-12-07T16:28:49;2.20;99.90
33328;DHT22;19692;52.998;9.116;2022-12-07T16:31:19;2.10;99.90
33328;DHT22;19692;52.998;9.116;2022-12-07T16:33:46;2.10;99.90
33328;DHT22;19692;52.998;9.116;2022-12-07T16:36:13;2.10;99.90
33328;DHT22;19692;52.998;9.116;2022-12-07T16:38:42;2.00;99.90
33328;DHT22;19692;52.998;9.116;2022-12-07T16:41:09;2.00;99.90
33328;DHT22;19692;52.998;9.116;2022-12-07T16:43:36;1.90;99.90
33328;DHT22;19692;52.998;9.116;2022-12-07T16:46:02;1.90;99.90
33328;DHT22;19692;52.998;9.116;2022-12-07T16:48:29;1.90;99.90
33328;DHT22;19692;52.998;9.116;2022-12-07T16:50:55;1.90;99.90
33328;DHT22;19692;52.998;9.116;2022-12-07T16:53:23;1.90;99.90
33328;DHT22;19692;52.998;9.116;2022-12-07T16:55:50;1.90;99.90
33328;DHT22;19692;52.998;9.116;2022-12-07T16:58:16;1.90;99.90
33328;DHT22;19692;52.998;9.116;2022-12-07T17:00:43;2.00;99.90
33328;DHT22;19692;52.998;9.116;2022-12-07T17:03:10;2.00;99.90
33328;DHT22;19692;52.998;9.116;2022-12-07T17:05:40;2.00;99.90
33328;DHT22;19692;52.998;9.116;2022-12-07T17:08:07;2.00;99.90
33328;DHT22;19692;52.998;9.116;2022-12-07T17:10:38;2.00;99.90
33328;DHT22;19692;52.998;9.116;2022-12-07T17:13:06;2.10;99.90
33328;DHT22;19692;52.998;9.116;2022-12-07T17:16:01;2.20;99.90
33328;DHT22;19692;52.998;9.116;2022-12-07T17:18:30;2.10;99.90
33328;DHT22;19692;52.998;9.116;2022-12-07T17:21:05;2.20;99.90
33328;DHT22;19692;52.998;9.116;2022-12-07T17:23:33;2.20;99.90
33328;DHT22;19692;52.998;9.116;2022-12-07T17:26:11;2.20;99.90
33328;DHT22;19692;52.998;9.116;2022-12-07T17:28:40;2.20;99.90
33328;DHT22;19692;52.998;9.116;2022-12-07T17:31:07;2.20;99.90
33328;DHT22;19692;52.998;9.116;2022-12-07T17:33:36;2.20;99.90
33328;DHT22;19692;52.998;9.116;2022-12-07T17:36:10;2.30;99.90
33328;DHT22;19692;52.998;9.116;2022-12-07T17:38:40;2.20;99.90
33328;DHT22;19692;52.998;9.116;2022-12-07T17:41:18;2.20;99.90
33328;DHT22;19692;52.998;9.116;2022-12-07T17:44:14;2.10;99.90
33328;DHT22;19692;52.998;9.116;2022-12-07T17:46:42;2.10;99.90
33328;DHT22;19692;52.998;9.116;2022-12-07T17:49:09;2.00;99.90
33328;DHT22;19692;52.998;9.116;2022-12-07T17:51:34;2.00;99.90
33328;DHT22;19692;52.998;9.116;2022-12-07T17:54:18;2.10;99.90